NY Mills, New York
Current Conditions -  °F | °C
As of 10:00 AM on Friday 24 Oct 2014 (Local Time) from KRME Reporting Station
Overcast Overcast  
Wind Chill: 45°   Ceiling: 9500
Heat Index: 49°   Visibility: 10mi
Dew Point: 43°   Wind: 9mph
Humidity: 80%   Direction: 290°WNW
Pressure: 29.93"   Gusts: NA
Location:  43.0994°N, 75.2931°W
Report Text: KRME 241400Z 29008KT 10SM SCT019 SCT065 OVC095 09/06 A2993 RMK AO2 T00940061
Loading
Personal Weather Stations






























Interactive Weather Map
Tropical Storm Tracking
New forecast layout! Learn more

10-Day Weather Forecast

Advertisements
Track Severe Weather on mobile